createdAt,value
2023-12-12T00:01:58.426Z,16.77
2023-12-12T00:07:04.940Z,16.70
2023-12-12T00:12:09.771Z,16.40
2023-12-12T00:17:14.405Z,16.23
2023-12-12T00:22:20.614Z,15.73
2023-12-12T00:27:25.565Z,15.15
2023-12-12T00:32:30.771Z,15.48
2023-12-12T00:37:37.101Z,15.90
2023-12-12T00:42:41.983Z,14.70
2023-12-12T00:47:47.456Z,14.77
2023-12-12T00:52:55.993Z,14.88
2023-12-12T00:58:00.833Z,14.20
2023-12-12T01:03:06.277Z,15.27
2023-12-12T01:08:15.920Z,15.77
2023-12-12T01:13:21.806Z,14.20
2023-12-12T01:18:28.169Z,14.13
2023-12-12T01:36:20.366Z,12.63
2023-12-12T01:41:27.761Z,13.07
2023-12-12T01:46:35.885Z,13.60
2023-12-12T01:51:41.925Z,12.60
2023-12-12T01:56:58.913Z,13.70
2023-12-12T03:16:11.946Z,11.90
2023-12-12T03:22:01.859Z,12.00
2023-12-12T03:27:34.979Z,12.98
2023-12-12T03:37:55.619Z,12.27
2023-12-12T03:43:06.234Z,12.73
2023-12-12T03:49:20.382Z,11.68
2023-12-12T03:54:52.631Z,11.27
2023-12-12T04:13:05.743Z,10.95
2023-12-12T04:18:14.798Z,11.68
2023-12-12T04:23:26.344Z,12.70
2023-12-12T04:28:56.652Z,10.98
2023-12-12T04:34:53.362Z,11.15
2023-12-12T04:40:14.684Z,9.48
2023-12-12T04:45:27.678Z,9.43
2023-12-12T04:50:39.281Z,10.98
2023-12-12T04:56:08.676Z,10.80
2023-12-12T05:01:39.381Z,10.35
2023-12-12T05:14:13.633Z,11.27
2023-12-12T05:19:29.882Z,10.25
2023-12-12T05:24:39.095Z,11.02
2023-12-12T05:37:21.897Z,11.30
2023-12-12T05:42:32.292Z,12.40
2023-12-12T05:47:59.817Z,12.32
2023-12-12T05:59:00.218Z,12.68
2023-12-12T06:04:33.311Z,13.90
2023-12-12T06:46:17.863Z,11.38
2023-12-12T06:51:39.682Z,13.20
2023-12-12T06:56:50.967Z,13.68
2023-12-12T07:02:50.099Z,13.63
2023-12-12T07:08:43.727Z,15.43
2023-12-12T07:14:08.823Z,15.13
2023-12-12T07:19:18.162Z,14.68
2023-12-12T08:58:48.830Z,15.40
2023-12-12T09:11:21.997Z,13.95
2023-12-12T09:29:17.072Z,13.48
2023-12-12T09:34:32.313Z,12.45
2023-12-12T09:39:55.905Z,13.67
2023-12-12T09:45:29.831Z,13.52
2023-12-12T09:50:39.437Z,13.95
2023-12-12T10:20:02.959Z,13.63
2023-12-12T10:25:13.378Z,12.82
2023-12-12T10:30:20.594Z,12.68
2023-12-12T10:35:33.062Z,12.50
2023-12-12T10:40:42.952Z,11.18
2023-12-12T10:45:50.773Z,10.25
2023-12-12T10:51:07.330Z,10.38
2023-12-12T10:56:16.800Z,11.05
2023-12-12T11:01:25.924Z,10.38
2023-12-12T11:06:36.531Z,10.63
2023-12-12T11:11:46.793Z,10.55
2023-12-12T11:17:04.388Z,10.57
2023-12-12T11:22:42.090Z,8.88
2023-12-12T11:27:52.119Z,10.00
2023-12-12T11:33:02.748Z,10.75
2023-12-12T11:38:30.003Z,12.35
2023-12-12T11:43:40.729Z,12.57
2023-12-12T11:48:49.445Z,12.73
2023-12-12T11:54:00.077Z,12.45
2023-12-12T11:59:11.767Z,10.55
2023-12-12T12:04:18.600Z,10.98
2023-12-12T12:09:27.238Z,11.50
2023-12-12T12:14:35.117Z,11.40
2023-12-12T12:19:45.027Z,11.57
2023-12-12T12:24:54.431Z,10.82
2023-12-12T12:30:05.730Z,10.93
2023-12-12T12:35:15.336Z,11.20
2023-12-12T12:40:42.773Z,11.18
2023-12-12T12:45:58.237Z,9.95
2023-12-12T12:51:18.397Z,11.35
2023-12-12T12:56:30.392Z,10.50
2023-12-12T13:01:42.538Z,12.70
2023-12-12T13:12:04.886Z,9.45
2023-12-12T13:17:12.689Z,9.88
2023-12-12T13:22:20.682Z,9.95
2023-12-12T13:27:32.348Z,9.10
2023-12-12T13:32:45.907Z,12.38
2023-12-12T13:37:56.307Z,12.80
2023-12-12T13:43:08.395Z,13.95
2023-12-12T13:48:20.191Z,12.95
2023-12-12T13:53:42.023Z,16.42
2023-12-12T13:59:08.014Z,19.45
2023-12-12T14:04:47.358Z,47.55
2023-12-12T14:10:06.108Z,25.63
2023-12-12T14:16:07.731Z,28.50
2023-12-12T14:21:18.803Z,28.00
2023-12-12T14:32:44.677Z,32.28
2023-12-12T14:38:18.525Z,18.35
2023-12-12T14:50:59.794Z,16.67
2023-12-12T14:56:12.866Z,20.58
2023-12-12T15:01:33.005Z,26.63
2023-12-12T15:06:45.411Z,24.85
2023-12-12T15:12:17.062Z,24.10
2023-12-12T15:17:48.944Z,20.73
2023-12-12T15:23:06.776Z,21.38
2023-12-12T15:28:47.749Z,21.20
2023-12-12T15:41:53.835Z,22.00
2023-12-12T15:48:14.072Z,26.15
2023-12-12T16:00:15.739Z,30.15
2023-12-12T16:05:25.683Z,28.63
2023-12-12T16:32:35.338Z,27.13
2023-12-12T16:38:10.851Z,27.63
2023-12-12T16:44:06.880Z,26.35
2023-12-12T16:49:52.738Z,20.67
2023-12-12T16:55:00.297Z,17.40
2023-12-12T17:05:27.424Z,18.20
2023-12-12T17:10:33.206Z,18.85
2023-12-12T17:16:15.700Z,16.48
2023-12-12T17:48:52.079Z,18.73
2023-12-12T17:54:00.757Z,18.73
2023-12-12T17:59:09.334Z,19.02
2023-12-12T18:04:18.703Z,17.60
2023-12-12T18:15:47.399Z,19.98
2023-12-12T18:21:14.920Z,21.35
2023-12-12T18:26:30.367Z,22.92
2023-12-12T18:31:59.369Z,22.05
2023-12-12T18:37:08.897Z,23.23
2023-12-12T18:42:25.503Z,24.60
2023-12-12T18:48:02.384Z,21.80
2023-12-12T18:53:11.489Z,20.20
2023-12-12T18:58:28.532Z,16.77
2023-12-12T19:03:34.921Z,17.67
2023-12-12T19:14:51.561Z,15.63
2023-12-12T19:20:09.636Z,15.48
2023-12-12T19:25:15.115Z,15.25
2023-12-12T19:30:25.329Z,15.98
2023-12-12T19:35:49.418Z,17.42
2023-12-12T19:47:18.474Z,17.95
2023-12-12T19:52:25.868Z,17.63
2023-12-12T19:57:36.947Z,13.90
2023-12-12T20:02:47.169Z,14.00
2023-12-12T20:07:52.864Z,13.52
2023-12-12T20:24:39.552Z,13.88
2023-12-12T20:29:58.581Z,13.48
2023-12-12T20:35:07.042Z,13.38
2023-12-12T20:40:16.774Z,12.48
2023-12-12T20:45:24.296Z,13.80
2023-12-12T20:50:31.387Z,13.60
2023-12-12T20:55:43.425Z,12.90
2023-12-12T21:01:36.086Z,12.70
2023-12-12T21:06:46.893Z,12.75
2023-12-12T21:12:32.183Z,12.63
2023-12-12T21:17:42.447Z,13.40
2023-12-12T21:22:52.421Z,13.13
2023-12-12T21:28:08.712Z,11.98
2023-12-12T21:33:25.252Z,10.88
2023-12-12T21:38:46.312Z,12.45
2023-12-12T21:44:52.180Z,11.68
2023-12-12T22:02:05.033Z,11.68
2023-12-12T22:08:14.613Z,11.55
2023-12-12T22:13:29.233Z,9.77
2023-12-12T22:25:41.797Z,11.07
2023-12-12T22:30:57.916Z,8.68
2023-12-12T22:42:40.130Z,10.82
2023-12-12T22:54:08.057Z,8.60
2023-12-12T22:59:42.595Z,9.70
2023-12-12T23:05:48.827Z,9.27
2023-12-12T23:11:31.932Z,8.88
2023-12-12T23:17:05.012Z,7.72
2023-12-12T23:22:22.420Z,8.82
2023-12-12T23:27:34.091Z,8.60
2023-12-12T23:33:00.082Z,9.10
2023-12-12T23:38:07.675Z,7.80
2023-12-12T23:43:16.188Z,8.35
2023-12-12T23:48:29.922Z,9.00
2023-12-12T23:53:38.724Z,10.52
2023-12-12T23:58:47.954Z,10.15
